Time;durP1;ratioP1;P1;durP2;ratioP2;P2;SDS_P1;SDS_P2;PMS_P1;PMS_P2;Temp;Humidity;BMP_temperature;BMP_pressure;BME280_temperature;BME280_humidity;BME280_pressure;Samples;Min_cycle;Max_cycle;Signal;HPM_P1;HPM_P2
2023/02/22 00:00:42;;;;;;;84.17;25.20;;;;;;;8.41;100.00;149576.28;5015136;28;20425;-64
2023/02/22 00:03:23;;;;;;;83.53;25.33;;;;;;;8.40;100.00;149573.69;4998347;28;20022;-64
2023/02/22 00:06:01;;;;;;;81.53;25.87;;;;;;;8.39;100.00;149569.81;4999414;28;20101;-63
2023/02/22 00:08:31;;;;;;;87.23;24.93;;;;;;;8.39;100.00;149571.13;5014091;28;20025;-63
2023/02/22 00:11:01;;;;;;;91.27;26.03;;;;;;;8.37;100.00;149564.66;5014302;28;20033;-63
2023/02/22 00:13:28;;;;;;;92.73;26.17;;;;;;;8.35;100.00;149559.44;5013385;28;20033;-62
2023/02/22 00:15:58;;;;;;;87.33;25.30;;;;;;;8.34;100.00;149556.81;5014649;28;20026;-63
2023/02/22 00:18:26;;;;;;;85.10;24.70;;;;;;;8.32;100.00;149551.66;5013255;28;20527;-63
2023/02/22 00:20:52;;;;;;;86.63;25.37;;;;;;;8.31;100.00;149550.38;5012260;28;20033;-63
2023/02/22 00:23:21;;;;;;;81.87;24.43;;;;;;;8.31;100.00;149550.38;5013682;28;20033;-64
2023/02/22 00:25:49;;;;;;;79.47;25.13;;;;;;;8.30;100.00;149547.78;5014468;28;20026;-63
2023/02/22 00:28:18;;;;;;;90.43;25.43;;;;;;;8.33;100.00;149554.25;5013406;28;20474;-63
2023/02/22 00:30:47;;;;;;;83.57;23.50;;;;;;;8.32;100.00;149552.94;5013830;28;20485;-63
2023/02/22 00:33:14;;;;;;;87.67;24.67;;;;;;;8.34;100.00;149556.81;5012754;28;20030;-63
2023/02/22 00:35:40;;;;;;;83.13;24.47;;;;;;;8.34;100.00;149556.81;5013485;28;20389;-63
2023/02/22 00:38:06;;;;;;;87.43;26.37;;;;;;;8.35;100.00;149559.44;5012927;28;20392;-63
2023/02/22 00:40:34;;;;;;;69.43;21.80;;;;;;;8.48;100.00;149593.09;5012353;28;20084;-63
2023/02/22 00:43:01;;;;;;;73.27;23.27;;;;;;;8.46;100.00;149587.91;5011159;28;20030;-63
2023/02/22 00:45:28;;;;;;;84.23;23.57;;;;;;;8.49;100.00;149597.00;5013126;28;20028;-64
2023/02/22 00:47:54;;;;;;;76.03;23.83;;;;;;;8.46;100.00;149589.19;5013449;28;20037;-63
2023/02/22 00:50:21;;;;;;;69.30;22.33;;;;;;;8.45;100.00;149586.59;5005987;28;20037;-63
2023/02/22 00:52:47;;;;;;;73.07;22.60;;;;;;;8.47;100.00;149590.47;5007482;28;20030;-63
2023/02/22 00:55:22;;;;;;;77.00;23.77;;;;;;;8.44;100.00;149582.75;5005602;28;20049;-63
2023/02/22 00:57:48;;;;;;;70.47;22.17;;;;;;;8.39;100.00;149569.81;5013660;28;20034;-64
2023/02/22 01:00:17;;;;;;;72.27;22.83;;;;;;;8.40;100.00;149572.41;5011994;28;20029;-63
2023/02/22 01:02:43;;;;;;;71.73;22.57;;;;;;;8.40;100.00;149572.41;5013491;28;20243;-63
2023/02/22 01:05:15;;;;;;;72.13;22.77;;;;;;;8.34;100.00;149558.16;5011393;28;20121;-63
2023/02/22 01:07:41;;;;;;;73.93;22.63;;;;;;;8.35;100.00;149559.44;5013635;28;20033;-63
2023/02/22 01:10:08;;;;;;;71.90;22.13;;;;;;;8.32;100.00;149552.94;5012337;28;20037;-63
2023/02/22 01:12:34;;;;;;;77.07;23.70;;;;;;;8.34;100.00;149558.16;5012111;28;20179;-63
2023/02/22 01:15:04;;;;;;;77.00;24.03;;;;;;;8.36;100.00;149562.03;5009102;28;20563;-63
2023/02/22 01:17:30;;;;;;;76.13;23.40;;;;;;;8.34;100.00;149558.16;5013250;28;20034;-63
2023/02/22 01:19:55;;;;;;;68.43;22.80;;;;;;;8.35;100.00;149560.75;5011311;28;20393;-64
2023/02/22 01:22:21;;;;;;;69.43;22.50;;;;;;;8.39;100.00;149571.13;5012550;28;20033;-63
2023/02/22 01:24:48;;;;;;;70.97;21.37;;;;;;;8.37;100.00;149564.66;5012223;28;20033;-63
2023/02/22 01:27:13;;;;;;;83.03;23.77;;;;;;;8.38;100.00;149567.25;5011941;28;20351;-63
2023/02/22 01:29:40;;;;;;;72.63;22.70;;;;;;;8.40;100.00;149572.41;5011758;28;20037;-64
2023/02/22 01:32:06;;;;;;;60.23;21.37;;;;;;;8.47;100.00;149590.47;5012805;28;20039;-63
2023/02/22 01:34:31;;;;;;;65.13;22.03;;;;;;;8.43;100.00;149580.16;5011212;28;20121;-63
2023/02/22 01:36:58;;;;;;;62.40;21.47;;;;;;;8.37;100.00;149564.66;5012252;28;20164;-64
2023/02/22 01:39:23;;;;;;;69.57;21.63;;;;;;;8.36;100.00;149562.03;5011893;28;20026;-63
2023/02/22 01:41:49;;;;;;;72.60;22.00;;;;;;;8.34;100.00;149558.16;5012328;28;20110;-63
2023/02/22 01:44:29;;;;;;;72.83;22.10;;;;;;;8.31;100.00;149549.06;5011562;28;20088;-63
2023/02/22 01:46:57;;;;;;;62.03;20.73;;;;;;;8.31;100.00;149549.06;5009651;28;20030;-63
2023/02/22 01:49:28;;;;;;;70.77;21.70;;;;;;;8.30;100.00;149547.78;5010434;28;20462;-62
2023/02/22 01:51:56;;;;;;;69.33;21.87;;;;;;;8.30;100.00;149546.50;5006847;28;20096;-63
2023/02/22 01:54:31;;;;;;;65.37;22.20;;;;;;;8.33;100.00;149554.25;5007115;28;20300;-63
2023/02/22 01:57:22;;;;;;;75.13;22.83;;;;;;;8.30;100.00;149546.50;5012901;28;20045;-63
2023/02/22 01:59:52;;;;;;;61.40;20.10;;;;;;;8.32;100.00;149551.66;5011313;28;20068;-63
2023/02/22 02:02:20;;;;;;;66.07;21.70;;;;;;;8.27;100.00;149538.75;5058405;22;20408;-67
2023/02/22 02:04:47;;;;;;;72.07;22.27;;;;;;;8.25;100.00;149533.59;5042053;28;20365;-66
2023/02/22 02:07:16;;;;;;;70.73;21.83;;;;;;;8.23;100.00;149529.66;5041587;28;20044;-67
2023/02/22 02:09:41;;;;;;;70.93;21.93;;;;;;;8.17;100.00;149515.47;5047891;28;20021;-67
2023/02/22 02:12:09;;;;;;;68.87;22.87;;;;;;;8.22;100.00;149527.09;5040059;28;20203;-67
2023/02/22 02:14:39;;;;;;;66.57;22.20;;;;;;;8.22;100.00;149527.09;5049241;28;20471;-67
2023/02/22 02:17:08;;;;;;;65.60;21.33;;;;;;;8.23;100.00;149530.97;5047266;28;20405;-67
2023/02/22 02:19:55;;;;;;;67.50;22.30;;;;;;;8.25;100.00;149534.88;5045948;28;20396;-67
2023/02/22 02:22:32;;;;;;;73.57;21.73;;;;;;;8.22;100.00;149528.38;5047415;28;20086;-67
2023/02/22 02:25:43;;;;;;;72.63;22.63;;;;;;;8.22;100.00;149528.38;5045581;28;20040;-67
2023/02/22 02:28:42;;;;;;;71.93;21.93;;;;;;;8.22;100.00;149527.09;5028881;28;20048;-67
2023/02/22 02:31:22;;;;;;;74.73;23.17;;;;;;;8.21;100.00;149525.81;5048744;28;20025;-67
2023/02/22 02:33:51;;;;;;;67.83;20.37;;;;;;;8.30;100.00;149546.50;5039216;28;20033;-67
2023/02/22 02:36:54;;;;;;;65.67;20.63;;;;;;;8.34;100.00;149556.81;5047217;28;20032;-67
2023/02/22 02:39:28;;;;;;;61.90;20.63;;;;;;;8.39;100.00;149569.81;5048383;28;20036;-67
2023/02/22 02:41:55;;;;;;;66.33;21.20;;;;;;;8.33;100.00;149554.25;5045736;28;20032;-67
2023/02/22 02:44:30;;;;;;;65.07;20.07;;;;;;;8.32;100.00;149551.66;5049162;28;20032;-67
2023/02/22 02:47:20;;;;;;;66.23;21.33;;;;;;;8.32;100.00;149551.66;5046164;28;20120;-67
2023/02/22 02:49:57;;;;;;;63.37;20.67;;;;;;;8.30;100.00;149546.50;5037873;28;20028;-67
2023/02/22 02:52:26;;;;;;;66.00;19.83;;;;;;;8.37;100.00;149564.66;5050205;28;20512;-67
2023/02/22 02:54:54;;;;;;;57.10;18.73;;;;;;;8.39;100.00;149571.13;5048461;28;20037;-67
2023/02/22 02:57:19;;;;;;;55.10;20.10;;;;;;;8.37;100.00;149564.66;5047576;28;20029;-67
2023/02/22 02:59:45;;;;;;;49.10;17.03;;;;;;;8.39;100.00;149571.13;5038556;28;20407;-67
2023/02/22 03:02:28;;;;;;;54.33;19.03;;;;;;;8.40;100.00;149572.41;5039982;28;20044;-66
2023/02/22 03:05:11;;;;;;;51.87;18.67;;;;;;;8.43;100.00;149580.16;5030154;28;20030;-67
2023/02/22 03:07:58;;;;;;;53.23;18.97;;;;;;;8.42;100.00;149577.56;5025249;28;20119;-67
2023/02/22 03:10:36;;;;;;;54.53;19.70;;;;;;;8.36;100.00;149562.03;5027785;28;20411;-67
2023/02/22 03:13:02;;;;;;;53.43;19.07;;;;;;;8.35;100.00;149559.44;5031545;28;20037;-67
2023/02/22 03:16:02;;;;;;;53.57;19.70;;;;;;;8.30;100.00;149546.50;5031605;28;20397;-67
2023/02/22 03:18:49;;;;;;;53.63;18.80;;;;;;;8.36;100.00;149562.03;5021922;28;20124;-67
2023/02/22 03:21:38;;;;;;;57.70;19.03;;;;;;;8.29;100.00;149543.91;5030298;28;20095;-67
2023/02/22 03:24:15;;;;;;;56.30;18.63;;;;;;;8.29;100.00;149543.91;5016653;28;20091;-67
2023/02/22 03:26:48;;;;;;;61.00;20.23;;;;;;;8.22;100.00;149528.38;5044247;28;20036;-67
2023/02/22 03:29:17;;;;;;;52.90;19.07;;;;;;;8.17;100.00;149515.47;5041489;28;20029;-66
2023/02/22 03:31:54;;;;;;;64.80;21.10;;;;;;;8.18;100.00;149518.06;5033466;28;20040;-67
2023/02/22 03:34:28;;;;;;;62.03;21.43;;;;;;;8.32;100.00;149551.66;5034903;28;20045;-67
2023/02/22 03:37:00;;;;;;;66.73;21.13;;;;;;;8.30;100.00;149546.50;5034015;28;20116;-64
2023/02/22 03:39:29;;;;;;;61.87;20.77;;;;;;;8.27;100.00;149540.03;5034674;28;20037;-64
2023/02/22 03:42:00;;;;;;;64.70;21.53;;;;;;;8.28;100.00;149541.34;5043549;28;20546;-64
2023/02/22 03:44:29;;;;;;;66.37;22.30;;;;;;;8.28;100.00;149541.34;5023776;28;20033;-64
2023/02/22 03:47:00;;;;;;;68.53;21.33;;;;;;;8.32;100.00;149551.66;5034224;28;20032;-64
2023/02/22 03:49:55;;;;;;;62.40;20.60;;;;;;;8.28;100.00;149541.34;5036408;28;20037;-64
2023/02/22 03:52:23;;;;;;;67.27;22.07;;;;;;;8.28;100.00;149541.34;5001460;28;20029;-64
2023/02/22 03:54:53;;;;;;;60.93;19.90;;;;;;;8.28;100.00;149541.34;5029596;28;20419;-64
2023/02/22 03:57:27;;;;;;;61.37;20.67;;;;;;;8.28;100.00;149541.34;5029392;28;20025;-64
2023/02/22 03:59:53;;;;;;;60.40;20.27;;;;;;;8.29;100.00;149543.91;5032352;28;20045;-64
2023/02/22 04:02:18;;;;;;;55.10;19.73;;;;;;;8.33;100.00;149554.25;5034328;28;20496;-64
2023/02/22 04:04:45;;;;;;;61.23;19.57;;;;;;;8.37;100.00;149564.66;5031400;28;20426;-63
2023/02/22 04:07:10;;;;;;;50.33;17.73;;;;;;;8.34;100.00;149558.16;5034938;28;20419;-64
2023/02/22 04:09:36;;;;;;;53.07;17.97;;;;;;;8.38;100.00;149567.25;5033676;28;20029;-64
2023/02/22 04:12:01;;;;;;;53.87;19.87;;;;;;;8.38;100.00;149567.25;5045797;28;20025;-64
2023/02/22 04:14:27;;;;;;;52.17;18.80;;;;;;;8.36;100.00;149562.03;5034393;28;20121;-64
2023/02/22 04:16:52;;;;;;;49.70;18.47;;;;;;;8.39;100.00;149569.81;5030527;28;20388;-64
2023/02/22 04:19:17;;;;;;;56.00;19.13;;;;;;;8.37;100.00;149564.66;5033793;28;20029;-64
2023/02/22 04:21:43;;;;;;;49.43;17.33;;;;;;;8.39;100.00;149571.13;5032999;28;20441;-64
2023/02/22 04:24:08;;;;;;;44.83;16.70;;;;;;;8.40;100.00;149572.41;5033859;28;20029;-64
2023/02/22 04:26:34;;;;;;;48.00;17.90;;;;;;;8.39;100.00;149569.81;5044002;28;20173;-64
2023/02/22 04:28:59;;;;;;;46.87;17.87;;;;;;;8.38;100.00;149567.25;5033787;28;20032;-64
2023/02/22 04:31:24;;;;;;;46.10;17.07;;;;;;;8.40;100.00;149572.41;5033490;28;20432;-64
2023/02/22 04:33:50;;;;;;;43.10;16.63;;;;;;;8.40;100.00;149572.41;5033595;28;20030;-64
2023/02/22 04:36:15;;;;;;;47.30;17.27;;;;;;;8.46;100.00;149587.91;5039232;28;20078;-64
2023/02/22 04:38:41;;;;;;;45.57;16.40;;;;;;;8.43;100.00;149580.16;5035213;28;20116;-64
2023/02/22 04:41:07;;;;;;;46.67;16.83;;;;;;;8.45;100.00;149585.31;5038030;28;20029;-64
2023/02/22 04:43:32;;;;;;;42.90;16.90;;;;;;;8.45;100.00;149585.31;5041117;28;20034;-64
2023/02/22 04:45:57;;;;;;;41.87;16.37;;;;;;;8.42;100.00;149577.56;5027535;28;20026;-65
2023/02/22 04:48:23;;;;;;;48.43;18.27;;;;;;;8.39;100.00;149569.81;5028978;28;20476;-64
2023/02/22 04:50:50;;;;;;;46.87;17.20;;;;;;;8.36;100.00;149562.03;5029951;28;20388;-64
2023/02/22 04:53:15;;;;;;;49.63;17.97;;;;;;;8.33;100.00;149555.53;5033385;28;20034;-65
2023/02/22 04:55:40;;;;;;;48.97;18.00;;;;;;;8.35;100.00;149560.75;5033974;28;20032;-64
2023/02/22 04:58:06;;;;;;;53.83;18.70;;;;;;;8.35;100.00;149559.44;5033957;28;20469;-64
2023/02/22 05:00:31;;;;;;;49.80;19.20;;;;;;;8.30;100.00;149547.78;5032819;28;20115;-65
2023/02/22 05:02:56;;;;;;;57.73;18.83;;;;;;;8.27;100.00;149538.75;5033350;28;20087;-64
2023/02/22 05:05:22;;;;;;;55.37;19.53;;;;;;;8.25;100.00;149533.59;5030011;28;20025;-64
2023/02/22 05:07:48;;;;;;;53.63;19.33;;;;;;;8.26;100.00;149536.16;5032453;28;20485;-64
2023/02/22 05:10:15;;;;;;;59.07;19.37;;;;;;;8.21;100.00;149525.81;5031839;28;20029;-64
2023/02/22 05:12:41;;;;;;;51.57;17.87;;;;;;;8.19;100.00;149520.63;5038046;28;20032;-64
2023/02/22 05:15:07;;;;;;;57.10;18.93;;;;;;;8.08;100.00;149490.91;5033092;28;21658;-64
2023/02/22 05:17:33;;;;;;;56.23;19.20;;;;;;;7.97;100.00;149463.75;5046572;28;20557;-64
2023/02/22 05:19:59;;;;;;;58.40;19.13;;;;;;;7.91;100.00;149449.56;5031925;28;20040;-64
2023/02/22 05:22:24;;;;;;;60.33;19.53;;;;;;;7.90;100.00;149445.69;5032889;28;20108;-64
2023/02/22 05:24:52;;;;;;;57.30;17.83;;;;;;;7.85;100.00;149432.75;5030601;28;20033;-64
2023/02/22 05:27:18;;;;;;;58.57;18.20;;;;;;;7.77;100.00;149412.09;5063110;28;20485;-64
2023/02/22 05:29:43;;;;;;;55.87;18.63;;;;;;;7.77;100.00;149412.09;5032943;28;20083;-64
2023/02/22 05:32:11;;;;;;;45.97;15.73;;;;;;;7.78;100.00;149414.69;5032350;28;20021;-64
2023/02/22 05:34:36;;;;;;;52.83;16.67;;;;;;;7.77;100.00;149413.41;5031169;28;20033;-64
2023/02/22 05:37:02;;;;;;;51.27;17.43;;;;;;;7.75;100.00;149406.91;5033508;28;20079;-64
2023/02/22 05:39:28;;;;;;;45.50;15.17;;;;;;;7.78;100.00;149414.69;5031588;28;20108;-64
2023/02/22 05:41:53;;;;;;;42.90;15.13;;;;;;;7.73;100.00;149403.03;5042189;28;20037;-63
2023/02/22 05:44:19;;;;;;;46.57;16.03;;;;;;;7.64;100.00;149381.09;5048548;28;20044;-64
2023/02/22 05:46:44;;;;;;;43.13;14.77;;;;;;;7.65;100.00;149382.38;5042164;28;20032;-64
2023/02/22 05:49:09;;;;;;;41.33;14.13;;;;;;;7.64;100.00;149381.09;5033847;28;20160;-64
2023/02/22 05:51:35;;;;;;;36.97;13.40;;;;;;;7.63;100.00;149378.53;5031829;28;20026;-64
2023/02/22 05:54:00;;;;;;;42.87;14.03;;;;;;;7.57;100.00;149361.69;5031732;28;20036;-65
2023/02/22 05:56:27;;;;;;;45.70;15.27;;;;;;;7.47;100.00;149335.84;5036429;28;20472;-64
2023/02/22 05:58:53;;;;;;;46.00;15.07;;;;;;;7.38;100.00;149313.88;5021167;28;20116;-64
2023/02/22 06:01:20;;;;;;;52.03;19.23;;;;;;;7.35;100.00;149307.44;5031376;28;20113;-64
2023/02/22 06:03:47;;;;;;;48.80;16.50;;;;;;;7.25;100.00;149280.31;5031834;28;20017;-64
2023/02/22 06:06:13;;;;;;;46.03;15.17;;;;;;;7.12;100.00;149248.03;5033071;28;20013;-64
2023/02/22 06:08:38;;;;;;;45.50;15.17;;;;;;;7.00;100.00;149217.03;5040211;28;20029;-64
2023/02/22 06:11:04;;;;;;;43.97;14.63;;;;;;;6.90;100.00;149192.50;5030052;28;20032;-64
2023/02/22 06:13:29;;;;;;;49.03;15.60;;;;;;;6.85;100.00;149178.31;5031795;28;20389;-64
2023/02/22 06:15:55;;;;;;;45.63;15.00;;;;;;;6.97;100.00;149210.59;5029157;28;20142;-65
2023/02/22 06:18:20;;;;;;;47.67;14.73;;;;;;;7.05;100.00;149231.25;5030448;28;20028;-64
2023/02/22 06:20:45;;;;;;;49.13;15.80;;;;;;;7.19;100.00;149264.84;5029549;28;20022;-64
2023/02/22 06:23:11;;;;;;;42.33;15.03;;;;;;;7.25;100.00;149280.31;5030338;28;20014;-64
2023/02/22 06:25:36;;;;;;;41.00;15.10;;;;;;;7.29;100.00;149290.66;5030769;28;21211;-64
2023/02/22 06:28:03;;;;;;;47.03;15.83;;;;;;;7.37;100.00;149311.31;5048210;28;20071;-64
2023/02/22 06:30:29;;;;;;;48.43;15.57;;;;;;;7.41;100.00;149320.38;5031698;28;20026;-64
2023/02/22 06:32:54;;;;;;;48.47;16.87;;;;;;;7.41;100.00;149320.38;5031917;28;20025;-65
2023/02/22 06:35:20;;;;;;;47.70;15.63;;;;;;;7.47;100.00;149337.16;5030636;28;20365;-65
2023/02/22 06:37:46;;;;;;;47.13;15.53;;;;;;;7.48;100.00;149339.72;5050041;28;20094;-64
2023/02/22 06:40:14;;;;;;;47.87;17.03;;;;;;;7.48;100.00;149339.72;5051922;28;20469;-64
2023/02/22 06:42:39;;;;;;;47.27;16.20;;;;;;;7.62;100.00;149375.88;5034863;28;20511;-65
2023/02/22 06:45:05;;;;;;;51.20;15.87;;;;;;;7.63;100.00;149378.53;5040709;28;20021;-64
2023/02/22 06:47:30;;;;;;;46.73;15.63;;;;;;;7.75;100.00;149406.91;5028442;28;20116;-64
2023/02/22 06:49:57;;;;;;;47.80;15.80;;;;;;;7.82;100.00;149425.00;5027263;28;20079;-64
2023/02/22 06:52:23;;;;;;;45.83;15.20;;;;;;;7.92;100.00;149450.84;5033444;28;20029;-64
2023/02/22 06:54:49;;;;;;;49.20;16.53;;;;;;;7.97;100.00;149463.75;5030067;28;20032;-64
2023/02/22 06:57:14;;;;;;;47.40;17.03;;;;;;;8.04;100.00;149481.88;5029244;28;20098;-64
2023/02/22 06:59:40;;;;;;;47.30;15.77;;;;;;;8.07;100.00;149489.63;5031177;28;20053;-64
2023/02/22 07:02:05;;;;;;;46.70;15.83;;;;;;;8.11;100.00;149499.94;5031299;28;20065;-64
2023/02/22 07:04:31;;;;;;;45.00;16.03;;;;;;;8.17;100.00;149515.47;5030621;28;20032;-64
2023/02/22 07:06:56;;;;;;;41.60;14.40;;;;;;;8.21;100.00;149524.50;5029482;28;20033;-64
2023/02/22 07:09:21;;;;;;;43.20;13.70;;;;;;;8.26;100.00;149536.16;5031687;28;20096;-65
2023/02/22 07:11:47;;;;;;;39.47;14.33;;;;;;;8.32;100.00;149552.94;5035994;28;20032;-64
2023/02/22 07:14:15;;;;;;;48.03;14.93;;;;;;;8.37;100.00;149564.66;5031010;28;20021;-64
2023/02/22 07:16:41;;;;;;;38.43;13.20;;;;;;;8.42;100.00;149577.56;5036449;28;20108;-64
2023/02/22 07:19:06;;;;;;;42.53;15.50;;;;;;;8.42;100.00;149578.88;5031419;28;20585;-64
2023/02/22 07:21:31;;;;;;;38.23;14.93;;;;;;;8.44;100.00;149582.75;5030466;28;20623;-64
2023/02/22 07:23:58;;;;;;;47.77;15.57;;;;;;;8.44;100.00;149582.75;5031458;28;20673;-64
2023/02/22 07:26:24;;;;;;;39.27;14.90;;;;;;;8.50;100.00;149598.28;5041900;28;20562;-64
2023/02/22 07:28:49;;;;;;;41.23;14.70;;;;;;;8.60;100.00;149624.13;5031008;28;20033;-64
2023/02/22 07:31:15;;;;;;;39.57;13.27;;;;;;;8.65;100.00;149635.75;5029983;28;20492;-65
2023/02/22 07:33:41;;;;;;;39.57;14.10;;;;;;;8.70;100.00;149649.97;5028002;28;20022;-65
2023/02/22 07:36:07;;;;;;;43.17;14.73;;;;;;;8.73;100.00;149656.47;5030927;28;20032;-65
2023/02/22 07:38:32;;;;;;;35.93;14.20;;;;;;;8.77;100.00;149666.78;5032102;28;20040;-64
2023/02/22 07:40:58;;;;;;;40.60;14.63;;;;;;;8.82;100.00;149681.00;5034508;28;20056;-64
2023/02/22 07:43:28;;;;;;;38.33;14.37;;;;;;;8.89;100.00;149696.53;5034529;28;20116;-64
2023/02/22 07:45:55;;;;;;;43.03;14.87;;;;;;;8.99;100.00;149722.41;5037485;28;20024;-64
2023/02/22 07:48:23;;;;;;;40.80;13.33;;;;;;;9.06;100.00;149740.50;5035098;28;20389;-64
2023/02/22 07:50:49;;;;;;;33.63;12.63;;;;;;;9.08;100.00;149745.66;5028126;28;20029;-64
2023/02/22 07:53:24;;;;;;;35.07;12.77;;;;;;;9.13;100.00;149758.63;5023568;28;20037;-64
2023/02/22 07:55:50;;;;;;;30.23;11.73;;;;;;;9.16;100.00;149766.38;5018290;28;20037;-65
2023/02/22 07:58:18;;;;;;;39.33;13.87;;;;;;;9.18;100.00;149770.25;5027193;28;20030;-64
2023/02/22 08:00:47;;;;;;;34.37;13.67;;;;;;;9.24;100.00;149787.09;5019485;28;20481;-64
2023/02/22 08:03:13;;;;;;;31.83;12.77;;;;;;;9.27;100.00;149794.84;5026605;28;20045;-64
2023/02/22 08:05:41;;;;;;;35.67;14.23;;;;;;;9.30;100.00;149802.59;5035298;28;20052;-65
2023/02/22 08:08:06;;;;;;;36.80;13.67;;;;;;;9.36;100.00;149818.16;5049942;28;20115;-65
2023/02/22 08:10:34;;;;;;;31.13;11.80;;;;;;;9.34;100.00;149812.97;5047335;28;20087;-64
2023/02/22 08:13:00;;;;;;;32.80;11.53;;;;;;;9.36;100.00;149816.84;5045122;28;20029;-64
2023/02/22 08:15:28;;;;;;;33.33;12.50;;;;;;;9.36;100.00;149818.16;5034706;28;20128;-64
2023/02/22 08:17:54;;;;;;;35.93;14.63;;;;;;;9.38;100.00;149823.31;5033872;28;20037;-64
2023/02/22 08:20:20;;;;;;;36.87;14.77;;;;;;;9.41;100.00;149829.78;5049858;28;20025;-64
2023/02/22 08:22:46;;;;;;;37.07;14.53;;;;;;;9.37;100.00;149819.44;5054202;28;20864;-64
2023/02/22 08:25:14;;;;;;;42.20;15.67;;;;;;;9.29;100.00;149800.00;5053578;28;20025;-64
2023/02/22 08:27:40;;;;;;;38.43;14.83;;;;;;;9.32;100.00;149807.75;5052147;28;20017;-64
2023/02/22 08:30:07;;;;;;;36.03;13.00;;;;;;;9.39;100.00;149825.91;5054014;28;20031;-64
2023/02/22 08:32:34;;;;;;;34.23;13.73;;;;;;;9.37;100.00;149820.72;5053965;28;20021;-64
2023/02/22 08:35:00;;;;;;;32.57;12.47;;;;;;;9.45;100.00;149838.81;5054116;28;20050;-64
2023/02/22 08:37:26;;;;;;;29.60;12.03;;;;;;;9.49;100.00;149849.19;5050893;28;20033;-64
2023/02/22 08:39:52;;;;;;;32.83;13.00;;;;;;;9.58;100.00;149873.81;5053808;28;20098;-64
2023/02/22 08:42:17;;;;;;;35.57;13.37;;;;;;;9.78;100.00;149924.25;5050729;28;20108;-64
2023/02/22 08:44:43;;;;;;;29.83;12.17;;;;;;;9.86;100.00;149944.97;5053841;28;20529;-64
2023/02/22 08:47:08;;;;;;;31.60;11.70;;;;;;;9.88;100.00;149948.84;5048008;28;20025;-64
2023/02/22 08:49:34;;;;;;;29.87;12.30;;;;;;;10.00;100.00;149979.91;5033972;28;20059;-64
2023/02/22 08:51:59;;;;;;;34.47;13.00;;;;;;;10.03;100.00;149986.38;5033719;28;20025;-64
2023/02/22 08:54:24;;;;;;;27.43;9.90;;;;;;;10.01;100.00;149981.22;5033815;28;20121;-63
2023/02/22 08:56:50;;;;;;;28.50;12.53;;;;;;;10.09;100.00;150003.22;5042240;28;20025;-63
2023/02/22 08:59:16;;;;;;;29.97;12.47;;;;;;;10.17;100.00;150022.63;5053462;28;20120;-63
2023/02/22 09:01:42;;;;;;;31.80;11.63;;;;;;;10.23;100.00;150038.25;5050552;28;20400;-64
2023/02/22 09:04:07;;;;;;;28.07;11.60;;;;;;;10.26;100.00;150046.00;5053187;28;20037;-63
2023/02/22 09:06:33;;;;;;;29.07;12.00;;;;;;;10.26;100.00;150046.00;5053748;28;20032;-63
2023/02/22 09:08:58;;;;;;;27.97;11.27;;;;;;;10.22;100.00;150036.94;5044906;28;20103;-64
2023/02/22 09:11:24;;;;;;;31.67;11.57;;;;;;;10.27;100.00;150049.88;5033653;28;20033;-63
2023/02/22 09:13:49;;;;;;;32.63;12.80;;;;;;;10.28;100.00;150051.16;5053110;28;20087;-63
2023/02/22 09:16:15;;;;;;;28.93;11.53;;;;;;;10.38;100.00;150075.78;5053335;28;20025;-63
2023/02/22 09:18:40;;;;;;;30.07;11.40;;;;;;;10.41;100.00;150084.81;5053381;28;20538;-62
2023/02/22 09:21:06;;;;;;;30.83;12.13;;;;;;;10.52;100.00;150112.03;5050694;28;20385;-63
2023/02/22 09:23:31;;;;;;;26.17;10.13;;;;;;;10.53;100.00;150114.63;5034020;28;20044;-63
2023/02/22 09:25:58;;;;;;;31.50;12.17;;;;;;;10.58;100.00;150127.59;5032616;28;20048;-64
2023/02/22 09:28:25;;;;;;;29.23;11.30;;;;;;;10.67;100.00;150149.63;5050471;28;20033;-63
2023/02/22 09:30:50;;;;;;;29.10;11.30;;;;;;;10.73;100.00;150166.44;5052201;28;20075;-64
2023/02/22 09:33:17;;;;;;;30.43;11.93;;;;;;;10.87;100.00;150201.41;5051814;28;20483;-63
2023/02/22 09:35:48;;;;;;;30.53;11.80;;;;;;;10.98;100.00;150229.94;5036748;28;20442;-63
2023/02/22 09:38:16;;;;;;;29.30;12.68;;;;;;;11.01;100.00;150237.69;5032915;28;20442;-63
2023/02/22 09:40:48;;;;;;;28.33;11.07;;;;;;;11.14;100.00;150271.41;5032520;28;20039;-63
2023/02/22 09:43:35;;;;;;;29.95;12.82;;;;;;;11.26;100.00;150301.19;5043529;28;20024;-63
2023/02/22 09:46:37;;;;;;;28.80;11.67;;;;;;;11.33;100.00;150318.06;5052942;28;20071;-63
2023/02/22 09:49:12;;;;;;;28.88;12.20;;;;;;;11.28;100.00;150305.09;5030684;28;20035;-63
2023/02/22 09:51:56;;;;;;;26.97;11.33;;;;;;;11.30;100.00;150310.28;5050160;28;20052;-64
2023/02/22 09:54:33;;;;;;;30.83;12.97;;;;;;;11.29;100.00;150309.00;5049119;28;20094;-63
2023/02/22 09:57:03;;;;;;;33.80;14.17;;;;;;;11.40;100.00;150337.50;5047383;28;20025;-64
2023/02/22 09:59:33;;;;;;;31.17;11.97;;;;;;;11.34;100.00;150321.94;5052702;28;20373;-63
2023/02/22 10:02:25;;;;;;;29.80;12.57;;;;;;;11.41;100.00;150340.09;5052058;28;20057;-64
2023/02/22 10:05:16;;;;;;;28.25;11.95;;;;;;;11.51;100.00;150363.38;5050249;28;20472;-63
2023/02/22 10:07:59;;;;;;;31.13;12.63;;;;;;;11.51;100.00;150364.75;5052435;28;20392;-63
2023/02/22 10:10:32;;;;;;;31.87;12.23;;;;;;;11.50;100.00;150362.09;5044053;28;20026;-63
2023/02/22 10:13:38;;;;;;;30.33;13.03;;;;;;;11.50;100.00;150362.09;5052475;28;20384;-63
2023/02/22 10:16:35;;;;;;;32.47;13.70;;;;;;;11.56;100.00;150377.69;5001243;28;20037;-63
2023/02/22 10:19:26;;;;;;;25.07;9.70;;;;;;;11.47;100.00;150354.34;4988146;28;20065;-62
2023/02/22 10:22:13;;;;;;;29.17;11.93;;;;;;;11.50;100.00;150362.09;5009144;28;20033;-63
2023/02/22 10:24:41;;;;;;;31.07;13.33;;;;;;;11.54;100.00;150371.22;5009955;28;20473;-63
2023/02/22 10:27:16;;;;;;;29.10;13.27;;;;;;;11.81;100.00;150439.97;5006377;28;20175;-64
2023/02/22 10:29:47;;;;;;;34.47;14.90;;;;;;;11.89;100.00;150462.00;4991257;28;20058;-63
2023/02/22 10:32:20;;;;;;;32.33;15.20;;;;;;;11.90;100.00;150463.31;4989676;28;20124;-63
2023/02/22 10:34:50;;;;;;;29.53;13.20;;;;;;;12.01;100.00;150491.84;4990077;28;20184;-63
2023/02/22 10:37:22;;;;;;;31.20;13.77;;;;;;;11.91;100.00;150465.91;5002167;28;20042;-63
2023/02/22 10:39:51;;;;;;;26.53;12.50;;;;;;;11.79;100.00;150434.72;5009734;28;20044;-63
2023/02/22 10:42:21;;;;;;;29.80;13.30;;;;;;;11.94;100.00;150473.66;5006255;28;20041;-63
2023/02/22 10:44:46;;;;;;;28.07;11.10;;;;;;;12.06;100.00;150504.78;5002206;28;20027;-63
2023/02/22 10:47:14;;;;;;;32.30;13.50;;;;;;;12.03;100.00;150498.31;5001497;28;20038;-63
2023/02/22 10:50:00;;;;;;;30.37;14.20;;;;;;;12.08;100.00;150509.97;5024492;28;20492;-62
2023/02/22 10:52:29;;;;;;;25.30;11.67;;;;;;;12.14;100.00;150525.56;5051333;28;20052;-63
2023/02/22 10:54:57;;;;;;;32.60;14.43;;;;;;;12.27;100.00;150559.28;5036520;28;20025;-64
2023/02/22 10:57:34;;;;;;;28.00;13.87;;;;;;;12.22;100.00;150544.97;5040264;28;20037;-63
2023/02/22 11:00:28;;;;;;;28.73;14.07;;;;;;;12.38;100.00;150585.22;5051600;28;20029;-63
2023/02/22 11:03:18;;;;;;;30.03;13.80;;;;;;;12.45;100.00;150604.66;5051654;28;20475;-63
2023/02/22 11:05:44;;;;;;;29.00;13.60;;;;;;;12.36;100.00;150581.34;5051324;28;20119;-63
2023/02/22 11:08:24;;;;;;;29.47;14.07;;;;;;;12.35;100.00;150577.41;5049194;28;20059;-63
2023/02/22 11:10:56;;;;;;;30.97;14.43;;;;;;;12.48;100.00;150611.19;5051639;28;20502;-63
2023/02/22 11:13:30;;;;;;;29.02;14.40;;;;;;;12.53;100.00;150624.13;5047734;28;20021;-64
2023/02/22 11:16:34;;;;;;;24.80;11.57;;;;;;;12.47;100.00;150608.53;5038867;28;20040;-63
2023/02/22 11:19:16;;;;;;;26.10;11.03;;;;;;;12.37;100.00;150582.63;5005335;28;20038;-64